sensor_id;sensor_type;location;lat;lon;timestamp;temperature;humidity
57636;DHT22;43465;50.728;4.160;2023-07-30T00:01:40;18.50;99.90
57636;DHT22;43465;50.728;4.160;2023-07-30T00:04:06;18.40;99.90
57636;DHT22;43465;50.728;4.160;2023-07-30T00:06:32;18.40;99.90
57636;DHT22;43465;50.728;4.160;2023-07-30T00:08:57;18.50;99.90
57636;DHT22;43465;50.728;4.160;2023-07-30T00:11:23;18.50;99.90
57636;DHT22;43465;50.728;4.160;2023-07-30T00:13:49;18.50;99.90
57636;DHT22;43465;50.728;4.160;2023-07-30T00:16:14;18.50;99.90
57636;DHT22;43465;50.728;4.160;2023-07-30T00:18:40;18.60;99.90
57636;DHT22;43465;50.728;4.160;2023-07-30T00:21:05;18.60;99.90
57636;DHT22;43465;50.728;4.160;2023-07-30T00:23:31;18.60;99.90
57636;DHT22;43465;50.728;4.160;2023-07-30T00:25:57;18.60;99.90
57636;DHT22;43465;50.728;4.160;2023-07-30T00:28:22;18.60;99.90
57636;DHT22;43465;50.728;4.160;2023-07-30T00:30:48;18.70;99.90
57636;DHT22;43465;50.728;4.160;2023-07-30T00:33:13;18.70;99.90
57636;DHT22;43465;50.728;4.160;2023-07-30T00:35:39;18.70;99.90
57636;DHT22;43465;50.728;4.160;2023-07-30T00:38:05;18.70;99.90
57636;DHT22;43465;50.728;4.160;2023-07-30T00:40:30;18.70;99.90
57636;DHT22;43465;50.728;4.160;2023-07-30T00:42:56;18.70;99.90
57636;DHT22;43465;50.728;4.160;2023-07-30T00:45:22;18.70;99.90
57636;DHT22;43465;50.728;4.160;2023-07-30T00:47:47;18.70;99.90
57636;DHT22;43465;50.728;4.160;2023-07-30T00:50:14;18.70;99.90
57636;DHT22;43465;50.728;4.160;2023-07-30T00:52:40;18.60;99.90
57636;DHT22;43465;50.728;4.160;2023-07-30T00:55:07;18.70;99.90
57636;DHT22;43465;50.728;4.160;2023-07-30T00:57:34;18.70;99.90
57636;DHT22;43465;50.728;4.160;2023-07-30T01:00:02;18.70;99.90
57636;DHT22;43465;50.728;4.160;2023-07-30T01:02:31;18.70;99.90
57636;DHT22;43465;50.728;4.160;2023-07-30T01:04:57;18.70;99.90
57636;DHT22;43465;50.728;4.160;2023-07-30T01:07:23;18.70;99.90
57636;DHT22;43465;50.728;4.160;2023-07-30T01:09:49;18.70;99.90
57636;DHT22;43465;50.728;4.160;2023-07-30T01:12:15;18.70;99.90
57636;DHT22;43465;50.728;4.160;2023-07-30T01:14:40;18.70;99.90
57636;DHT22;43465;50.728;4.160;2023-07-30T01:17:07;18.70;99.90
57636;DHT22;43465;50.728;4.160;2023-07-30T01:19:32;18.70;99.90
57636;DHT22;43465;50.728;4.160;2023-07-30T01:21:58;18.70;99.90
57636;DHT22;43465;50.728;4.160;2023-07-30T01:24:24;18.70;99.90
57636;DHT22;43465;50.728;4.160;2023-07-30T01:26:55;18.70;99.90
57636;DHT22;43465;50.728;4.160;2023-07-30T01:29:22;18.70;99.90
57636;DHT22;43465;50.728;4.160;2023-07-30T01:31:59;18.70;99.90
57636;DHT22;43465;50.728;4.160;2023-07-30T01:34:27;18.70;99.90
57636;DHT22;43465;50.728;4.160;2023-07-30T01:36:54;18.70;99.90
57636;DHT22;43465;50.728;4.160;2023-07-30T01:39:21;18.70;99.90
57636;DHT22;43465;50.728;4.160;2023-07-30T01:41:47;18.70;99.90
57636;DHT22;43465;50.728;4.160;2023-07-30T01:44:13;18.70;99.90
57636;DHT22;43465;50.728;4.160;2023-07-30T01:46:38;18.70;99.90
57636;DHT22;43465;50.728;4.160;2023-07-30T01:49:04;18.70;99.90
57636;DHT22;43465;50.728;4.160;2023-07-30T01:51:30;18.70;99.90
57636;DHT22;43465;50.728;4.160;2023-07-30T01:53:55;18.70;99.90
57636;DHT22;43465;50.728;4.160;2023-07-30T01:56:21;18.70;99.90
57636;DHT22;43465;50.728;4.160;2023-07-30T01:58:46;18.70;99.90
57636;DHT22;43465;50.728;4.160;2023-07-30T02:01:12;18.60;99.90
57636;DHT22;43465;50.728;4.160;2023-07-30T02:03:38;18.70;99.90
57636;DHT22;43465;50.728;4.160;2023-07-30T02:06:03;18.60;99.90
57636;DHT22;43465;50.728;4.160;2023-07-30T02:08:29;18.60;99.90
57636;DHT22;43465;50.728;4.160;2023-07-30T02:10:56;18.60;99.90
57636;DHT22;43465;50.728;4.160;2023-07-30T02:13:22;18.60;99.90
57636;DHT22;43465;50.728;4.160;2023-07-30T02:15:48;18.60;99.90
57636;DHT22;43465;50.728;4.160;2023-07-30T02:18:13;18.50;99.90
57636;DHT22;43465;50.728;4.160;2023-07-30T02:20:39;18.50;99.90
57636;DHT22;43465;50.728;4.160;2023-07-30T02:23:04;18.50;99.90
57636;DHT22;43465;50.728;4.160;2023-07-30T02:25:30;18.40;99.90
57636;DHT22;43465;50.728;4.160;2023-07-30T02:27:57;18.40;99.90
57636;DHT22;43465;50.728;4.160;2023-07-30T02:30:22;18.40;99.90
57636;DHT22;43465;50.728;4.160;2023-07-30T02:32:48;18.40;99.90
57636;DHT22;43465;50.728;4.160;2023-07-30T02:35:14;18.40;99.90
57636;DHT22;43465;50.728;4.160;2023-07-30T02:37:39;18.40;99.90
57636;DHT22;43465;50.728;4.160;2023-07-30T02:40:05;18.30;99.90
57636;DHT22;43465;50.728;4.160;2023-07-30T02:42:31;18.30;99.90
57636;DHT22;43465;50.728;4.160;2023-07-30T02:44:57;18.30;99.90
57636;DHT22;43465;50.728;4.160;2023-07-30T02:47:22;18.30;99.90
57636;DHT22;43465;50.728;4.160;2023-07-30T02:49:48;18.30;99.90
57636;DHT22;43465;50.728;4.160;2023-07-30T02:52:13;18.30;99.90
57636;DHT22;43465;50.728;4.160;2023-07-30T02:54:39;18.30;99.90
57636;DHT22;43465;50.728;4.160;2023-07-30T02:57:05;18.30;99.90
57636;DHT22;43465;50.728;4.160;2023-07-30T02:59:31;18.30;99.90
57636;DHT22;43465;50.728;4.160;2023-07-30T03:01:56;18.30;99.90
57636;DHT22;43465;50.728;4.160;2023-07-30T03:04:22;18.20;99.90
57636;DHT22;43465;50.728;4.160;2023-07-30T03:06:48;18.30;99.90
57636;DHT22;43465;50.728;4.160;2023-07-30T03:09:13;18.30;99.90
57636;DHT22;43465;50.728;4.160;2023-07-30T03:11:39;18.20;99.90
57636;DHT22;43465;50.728;4.160;2023-07-30T03:14:04;18.30;99.90
57636;DHT22;43465;50.728;4.160;2023-07-30T03:16:30;18.30;99.90
57636;DHT22;43465;50.728;4.160;2023-07-30T03:18:56;18.20;99.90
57636;DHT22;43465;50.728;4.160;2023-07-30T03:21:21;18.20;99.90
57636;DHT22;43465;50.728;4.160;2023-07-30T03:23:47;18.20;99.90
57636;DHT22;43465;50.728;4.160;2023-07-30T03:26:13;18.10;99.90
57636;DHT22;43465;50.728;4.160;2023-07-30T03:28:39;18.10;99.90
57636;DHT22;43465;50.728;4.160;2023-07-30T03:31:05;18.10;99.90
57636;DHT22;43465;50.728;4.160;2023-07-30T03:33:31;18.00;99.90
57636;DHT22;43465;50.728;4.160;2023-07-30T03:35:57;18.00;99.90
57636;DHT22;43465;50.728;4.160;2023-07-30T03:38:22;17.90;99.90
57636;DHT22;43465;50.728;4.160;2023-07-30T03:40:48;17.90;99.90
57636;DHT22;43465;50.728;4.160;2023-07-30T03:43:14;18.00;99.90
57636;DHT22;43465;50.728;4.160;2023-07-30T03:45:39;18.00;99.90
57636;DHT22;43465;50.728;4.160;2023-07-30T03:48:05;17.90;99.90
57636;DHT22;43465;50.728;4.160;2023-07-30T03:50:31;17.90;99.90
57636;DHT22;43465;50.728;4.160;2023-07-30T03:52:56;17.90;99.90
57636;DHT22;43465;50.728;4.160;2023-07-30T03:55:23;17.90;99.90
57636;DHT22;43465;50.728;4.160;2023-07-30T03:57:49;17.90;99.90
57636;DHT22;43465;50.728;4.160;2023-07-30T04:00:15;17.90;99.90
57636;DHT22;43465;50.728;4.160;2023-07-30T04:02:40;17.80;99.90
57636;DHT22;43465;50.728;4.160;2023-07-30T04:05:06;17.80;99.90
57636;DHT22;43465;50.728;4.160;2023-07-30T04:07:32;17.80;99.90
57636;DHT22;43465;50.728;4.160;2023-07-30T04:09:57;17.80;99.90
57636;DHT22;43465;50.728;4.160;2023-07-30T04:12:23;17.80;99.90
57636;DHT22;43465;50.728;4.160;2023-07-30T04:14:49;17.70;99.90
57636;DHT22;43465;50.728;4.160;2023-07-30T04:17:14;17.80;99.90
57636;DHT22;43465;50.728;4.160;2023-07-30T04:19:40;17.70;99.90
57636;DHT22;43465;50.728;4.160;2023-07-30T04:22:06;17.80;99.90
57636;DHT22;43465;50.728;4.160;2023-07-30T04:24:31;17.80;99.90
57636;DHT22;43465;50.728;4.160;2023-07-30T04:26:57;17.70;99.90
57636;DHT22;43465;50.728;4.160;2023-07-30T04:29:22;17.70;99.90
57636;DHT22;43465;50.728;4.160;2023-07-30T04:31:48;17.70;99.90
57636;DHT22;43465;50.728;4.160;2023-07-30T04:34:14;17.70;99.90
57636;DHT22;43465;50.728;4.160;2023-07-30T04:36:40;17.80;99.90
57636;DHT22;43465;50.728;4.160;2023-07-30T04:39:06;17.80;99.90
57636;DHT22;43465;50.728;4.160;2023-07-30T04:41:31;17.80;99.90
57636;DHT22;43465;50.728;4.160;2023-07-30T04:43:57;17.80;99.90
57636;DHT22;43465;50.728;4.160;2023-07-30T04:46:23;17.70;99.90
57636;DHT22;43465;50.728;4.160;2023-07-30T04:48:48;17.80;99.90
57636;DHT22;43465;50.728;4.160;2023-07-30T04:51:14;17.80;99.90
57636;DHT22;43465;50.728;4.160;2023-07-30T04:53:39;17.80;99.90
57636;DHT22;43465;50.728;4.160;2023-07-30T04:56:05;17.80;99.90
57636;DHT22;43465;50.728;4.160;2023-07-30T04:58:31;17.80;99.90
57636;DHT22;43465;50.728;4.160;2023-07-30T05:00:56;17.80;99.90
57636;DHT22;43465;50.728;4.160;2023-07-30T05:03:22;17.80;99.90
57636;DHT22;43465;50.728;4.160;2023-07-30T05:05:51;17.80;99.90
57636;DHT22;43465;50.728;4.160;2023-07-30T05:08:16;17.80;99.90
57636;DHT22;43465;50.728;4.160;2023-07-30T05:10:42;17.80;99.90
57636;DHT22;43465;50.728;4.160;2023-07-30T05:13:07;17.80;99.90
57636;DHT22;43465;50.728;4.160;2023-07-30T05:15:34;17.80;99.90
57636;DHT22;43465;50.728;4.160;2023-07-30T05:18:00;17.80;99.90
57636;DHT22;43465;50.728;4.160;2023-07-30T05:20:25;17.80;99.90
57636;DHT22;43465;50.728;4.160;2023-07-30T05:22:51;17.80;99.90
57636;DHT22;43465;50.728;4.160;2023-07-30T05:25:16;17.90;99.90
57636;DHT22;43465;50.728;4.160;2023-07-30T05:27:42;17.90;99.90
57636;DHT22;43465;50.728;4.160;2023-07-30T05:30:08;17.90;99.90
57636;DHT22;43465;50.728;4.160;2023-07-30T05:32:34;17.90;99.90
57636;DHT22;43465;50.728;4.160;2023-07-30T05:34:59;17.90;99.90
57636;DHT22;43465;50.728;4.160;2023-07-30T05:37:25;17.90;99.90
57636;DHT22;43465;50.728;4.160;2023-07-30T05:39:51;17.90;99.90
57636;DHT22;43465;50.728;4.160;2023-07-30T05:42:16;18.00;99.90
57636;DHT22;43465;50.728;4.160;2023-07-30T05:44:42;18.00;99.90
57636;DHT22;43465;50.728;4.160;2023-07-30T05:47:08;18.00;99.90
57636;DHT22;43465;50.728;4.160;2023-07-30T05:49:33;18.00;99.90
57636;DHT22;43465;50.728;4.160;2023-07-30T05:51:59;18.00;99.90
57636;DHT22;43465;50.728;4.160;2023-07-30T05:54:24;18.00;99.90
57636;DHT22;43465;50.728;4.160;2023-07-30T05:56:50;18.00;99.90
57636;DHT22;43465;50.728;4.160;2023-07-30T05:59:16;18.00;99.90
57636;DHT22;43465;50.728;4.160;2023-07-30T06:01:41;18.00;99.90
57636;DHT22;43465;50.728;4.160;2023-07-30T06:04:07;18.00;99.90
57636;DHT22;43465;50.728;4.160;2023-07-30T06:06:32;18.10;99.90
57636;DHT22;43465;50.728;4.160;2023-07-30T06:08:58;18.10;99.90
57636;DHT22;43465;50.728;4.160;2023-07-30T06:11:24;18.10;99.90
57636;DHT22;43465;50.728;4.160;2023-07-30T06:13:50;18.20;99.90
57636;DHT22;43465;50.728;4.160;2023-07-30T06:16:18;18.20;99.90
57636;DHT22;43465;50.728;4.160;2023-07-30T06:18:45;18.10;99.90
57636;DHT22;43465;50.728;4.160;2023-07-30T06:21:11;18.20;99.90
57636;DHT22;43465;50.728;4.160;2023-07-30T06:23:36;18.20;99.90
57636;DHT22;43465;50.728;4.160;2023-07-30T06:26:02;18.10;99.90
57636;DHT22;43465;50.728;4.160;2023-07-30T06:28:28;18.10;99.90
57636;DHT22;43465;50.728;4.160;2023-07-30T06:30:53;18.10;99.90
57636;DHT22;43465;50.728;4.160;2023-07-30T06:33:19;18.10;99.90
57636;DHT22;43465;50.728;4.160;2023-07-30T06:35:45;18.20;99.90
57636;DHT22;43465;50.728;4.160;2023-07-30T06:38:10;18.10;99.90
57636;DHT22;43465;50.728;4.160;2023-07-30T06:40:36;18.10;99.90
57636;DHT22;43465;50.728;4.160;2023-07-30T06:43:02;18.10;99.90
57636;DHT22;43465;50.728;4.160;2023-07-30T06:45:28;18.20;99.90
57636;DHT22;43465;50.728;4.160;2023-07-30T06:47:53;18.10;99.90
57636;DHT22;43465;50.728;4.160;2023-07-30T06:50:19;18.10;99.90
57636;DHT22;43465;50.728;4.160;2023-07-30T06:52:44;18.20;99.90
57636;DHT22;43465;50.728;4.160;2023-07-30T06:55:10;18.20;99.90
57636;DHT22;43465;50.728;4.160;2023-07-30T06:57:36;18.30;99.90
57636;DHT22;43465;50.728;4.160;2023-07-30T07:00:02;18.40;99.90
57636;DHT22;43465;50.728;4.160;2023-07-30T07:02:28;18.50;99.90
57636;DHT22;43465;50.728;4.160;2023-07-30T07:04:54;18.70;99.90
57636;DHT22;43465;50.728;4.160;2023-07-30T07:07:20;18.80;99.90
57636;DHT22;43465;50.728;4.160;2023-07-30T07:09:46;18.90;99.90
57636;DHT22;43465;50.728;4.160;2023-07-30T07:12:12;19.10;99.90
57636;DHT22;43465;50.728;4.160;2023-07-30T07:14:38;19.30;99.90
57636;DHT22;43465;50.728;4.160;2023-07-30T07:17:04;19.40;99.90
57636;DHT22;43465;50.728;4.160;2023-07-30T07:19:30;19.40;99.90
57636;DHT22;43465;50.728;4.160;2023-07-30T07:21:56;19.40;99.90
57636;DHT22;43465;50.728;4.160;2023-07-30T07:24:22;19.50;99.90
57636;DHT22;43465;50.728;4.160;2023-07-30T07:26:48;19.50;99.90
57636;DHT22;43465;50.728;4.160;2023-07-30T07:29:13;19.50;99.90
57636;DHT22;43465;50.728;4.160;2023-07-30T07:31:39;19.50;99.90
57636;DHT22;43465;50.728;4.160;2023-07-30T07:34:04;19.50;99.90
57636;DHT22;43465;50.728;4.160;2023-07-30T07:36:30;19.60;99.90
57636;DHT22;43465;50.728;4.160;2023-07-30T07:38:56;19.60;99.90
57636;DHT22;43465;50.728;4.160;2023-07-30T07:41:21;19.60;99.90
57636;DHT22;43465;50.728;4.160;2023-07-30T07:43:47;19.60;99.90
57636;DHT22;43465;50.728;4.160;2023-07-30T07:46:13;19.60;99.90
57636;DHT22;43465;50.728;4.160;2023-07-30T07:48:40;19.60;99.90
57636;DHT22;43465;50.728;4.160;2023-07-30T07:51:07;19.70;99.90
57636;DHT22;43465;50.728;4.160;2023-07-30T07:53:32;19.70;99.90
57636;DHT22;43465;50.728;4.160;2023-07-30T07:55:58;19.80;99.90
57636;DHT22;43465;50.728;4.160;2023-07-30T07:58:23;19.80;99.90
57636;DHT22;43465;50.728;4.160;2023-07-30T08:00:49;19.80;99.90
57636;DHT22;43465;50.728;4.160;2023-07-30T08:03:14;19.80;99.90
57636;DHT22;43465;50.728;4.160;2023-07-30T08:05:40;19.90;99.90
57636;DHT22;43465;50.728;4.160;2023-07-30T08:08:06;19.90;99.90
57636;DHT22;43465;50.728;4.160;2023-07-30T08:10:31;20.00;99.90
57636;DHT22;43465;50.728;4.160;2023-07-30T08:12:57;20.10;99.90
57636;DHT22;43465;50.728;4.160;2023-07-30T08:15:23;20.10;99.90
57636;DHT22;43465;50.728;4.160;2023-07-30T08:17:48;20.10;99.90
57636;DHT22;43465;50.728;4.160;2023-07-30T08:20:14;20.10;99.90
57636;DHT22;43465;50.728;4.160;2023-07-30T08:22:40;20.20;99.90
57636;DHT22;43465;50.728;4.160;2023-07-30T08:25:06;20.30;99.90
57636;DHT22;43465;50.728;4.160;2023-07-30T08:27:32;20.30;99.90
57636;DHT22;43465;50.728;4.160;2023-07-30T08:29:57;20.40;99.90
57636;DHT22;43465;50.728;4.160;2023-07-30T08:32:23;20.40;99.90
57636;DHT22;43465;50.728;4.160;2023-07-30T08:34:48;20.40;99.90
57636;DHT22;43465;50.728;4.160;2023-07-30T08:37:14;20.40;99.90
57636;DHT22;43465;50.728;4.160;2023-07-30T08:39:40;20.40;99.90
57636;DHT22;43465;50.728;4.160;2023-07-30T08:42:05;20.40;99.90
57636;DHT22;43465;50.728;4.160;2023-07-30T08:44:31;20.50;99.90
57636;DHT22;43465;50.728;4.160;2023-07-30T08:46:57;20.50;99.90
57636;DHT22;43465;50.728;4.160;2023-07-30T08:49:23;20.40;99.90
57636;DHT22;43465;50.728;4.160;2023-07-30T08:51:52;20.30;99.90
57636;DHT22;43465;50.728;4.160;2023-07-30T08:54:20;20.30;99.90
57636;DHT22;43465;50.728;4.160;2023-07-30T08:56:48;20.20;99.90
57636;DHT22;43465;50.728;4.160;2023-07-30T08:59:15;20.00;99.90
57636;DHT22;43465;50.728;4.160;2023-07-30T09:01:41;20.00;99.90
57636;DHT22;43465;50.728;4.160;2023-07-30T09:04:08;19.90;99.90
57636;DHT22;43465;50.728;4.160;2023-07-30T09:06:34;19.90;99.90
57636;DHT22;43465;50.728;4.160;2023-07-30T09:09:00;19.90;99.90
57636;DHT22;43465;50.728;4.160;2023-07-30T09:11:26;20.00;99.90
57636;DHT22;43465;50.728;4.160;2023-07-30T09:13:54;20.10;99.90
57636;DHT22;43465;50.728;4.160;2023-07-30T09:16:24;20.20;99.90
57636;DHT22;43465;50.728;4.160;2023-07-30T09:18:50;20.30;99.90
57636;DHT22;43465;50.728;4.160;2023-07-30T09:21:18;20.40;99.90
57636;DHT22;43465;50.728;4.160;2023-07-30T09:23:46;20.50;99.90
57636;DHT22;43465;50.728;4.160;2023-07-30T09:26:12;20.70;99.90
57636;DHT22;43465;50.728;4.160;2023-07-30T09:28:39;20.90;99.90
57636;DHT22;43465;50.728;4.160;2023-07-30T09:31:07;21.00;99.90
57636;DHT22;43465;50.728;4.160;2023-07-30T09:33:40;21.20;99.90
57636;DHT22;43465;50.728;4.160;2023-07-30T09:36:07;21.30;99.90
57636;DHT22;43465;50.728;4.160;2023-07-30T09:38:41;21.30;99.90
57636;DHT22;43465;50.728;4.160;2023-07-30T09:41:07;21.30;99.90
57636;DHT22;43465;50.728;4.160;2023-07-30T09:43:34;21.30;99.90
57636;DHT22;43465;50.728;4.160;2023-07-30T09:46:05;21.40;99.90
57636;DHT22;43465;50.728;4.160;2023-07-30T09:48:32;21.40;99.90
57636;DHT22;43465;50.728;4.160;2023-07-30T09:51:02;21.40;99.90
57636;DHT22;43465;50.728;4.160;2023-07-30T09:53:33;21.20;99.90
57636;DHT22;43465;50.728;4.160;2023-07-30T09:56:02;21.30;99.90
57636;DHT22;43465;50.728;4.160;2023-07-30T09:58:29;21.30;99.90
57636;DHT22;43465;50.728;4.160;2023-07-30T10:00:58;21.30;99.90
57636;DHT22;43465;50.728;4.160;2023-07-30T10:03:24;21.30;99.90
57636;DHT22;43465;50.728;4.160;2023-07-30T10:05:59;21.40;99.90
57636;DHT22;43465;50.728;4.160;2023-07-30T10:08:25;21.40;99.90
57636;DHT22;43465;50.728;4.160;2023-07-30T10:10:53;21.50;99.90
57636;DHT22;43465;50.728;4.160;2023-07-30T10:13:19;21.60;99.90
57636;DHT22;43465;50.728;4.160;2023-07-30T10:15:46;21.60;99.90
57636;DHT22;43465;50.728;4.160;2023-07-30T10:18:12;21.60;99.90
57636;DHT22;43465;50.728;4.160;2023-07-30T10:20:38;21.70;99.90
57636;DHT22;43465;50.728;4.160;2023-07-30T10:23:05;21.90;99.90
57636;DHT22;43465;50.728;4.160;2023-07-30T10:25:44;21.90;99.90
57636;DHT22;43465;50.728;4.160;2023-07-30T10:31:03;21.70;99.90
57636;DHT22;43465;50.728;4.160;2023-07-30T10:33:46;21.60;99.90
57636;DHT22;43465;50.728;4.160;2023-07-30T10:36:12;21.40;99.90
57636;DHT22;43465;50.728;4.160;2023-07-30T10:38:39;21.30;99.90
57636;DHT22;43465;50.728;4.160;2023-07-30T10:41:15;21.20;99.90
57636;DHT22;43465;50.728;4.160;2023-07-30T10:43:50;21.20;99.90
57636;DHT22;43465;50.728;4.160;2023-07-30T10:46:19;21.20;99.90
57636;DHT22;43465;50.728;4.160;2023-07-30T10:48:48;21.20;99.90
57636;DHT22;43465;50.728;4.160;2023-07-30T10:51:16;21.30;99.90
57636;DHT22;43465;50.728;4.160;2023-07-30T10:53:46;21.40;99.90
57636;DHT22;43465;50.728;4.160;2023-07-30T10:56:13;21.50;99.90
57636;DHT22;43465;50.728;4.160;2023-07-30T10:58:39;21.70;99.90
57636;DHT22;43465;50.728;4.160;2023-07-30T11:01:06;21.80;99.90
57636;DHT22;43465;50.728;4.160;2023-07-30T11:03:32;22.00;99.90
57636;DHT22;43465;50.728;4.160;2023-07-30T11:06:02;22.30;99.90
57636;DHT22;43465;50.728;4.160;2023-07-30T11:08:42;22.40;99.90
57636;DHT22;43465;50.728;4.160;2023-07-30T11:11:09;22.50;99.90
57636;DHT22;43465;50.728;4.160;2023-07-30T11:13:42;22.50;99.90
57636;DHT22;43465;50.728;4.160;2023-07-30T11:16:11;22.50;99.90
57636;DHT22;43465;50.728;4.160;2023-07-30T11:18:39;22.40;99.90
57636;DHT22;43465;50.728;4.160;2023-07-30T11:21:16;22.30;99.90
57636;DHT22;43465;50.728;4.160;2023-07-30T11:23:43;22.30;99.90
57636;DHT22;43465;50.728;4.160;2023-07-30T11:26:23;22.20;99.90
57636;DHT22;43465;50.728;4.160;2023-07-30T11:28:48;22.20;99.90
57636;DHT22;43465;50.728;4.160;2023-07-30T11:31:18;22.20;99.90
57636;DHT22;43465;50.728;4.160;2023-07-30T11:33:49;22.20;99.90
57636;DHT22;43465;50.728;4.160;2023-07-30T11:36:19;22.10;99.90
57636;DHT22;43465;50.728;4.160;2023-07-30T11:38:45;22.00;99.90
57636;DHT22;43465;50.728;4.160;2023-07-30T11:41:12;22.10;99.90
57636;DHT22;43465;50.728;4.160;2023-07-30T11:43:39;22.00;99.90
57636;DHT22;43465;50.728;4.160;2023-07-30T11:46:09;22.00;99.90
57636;DHT22;43465;50.728;4.160;2023-07-30T11:48:36;22.00;99.90
57636;DHT22;43465;50.728;4.160;2023-07-30T11:51:02;22.20;99.90
57636;DHT22;43465;50.728;4.160;2023-07-30T11:53:44;22.20;99.90
57636;DHT22;43465;50.728;4.160;2023-07-30T11:56:24;22.20;99.90
57636;DHT22;43465;50.728;4.160;2023-07-30T11:58:55;22.10;99.90
57636;DHT22;43465;50.728;4.160;2023-07-30T12:01:24;21.80;99.90
57636;DHT22;43465;50.728;4.160;2023-07-30T12:03:49;21.90;99.90
57636;DHT22;43465;50.728;4.160;2023-07-30T12:06:15;21.90;99.90
57636;DHT22;43465;50.728;4.160;2023-07-30T12:08:41;22.10;99.90
57636;DHT22;43465;50.728;4.160;2023-07-30T12:11:08;22.40;99.90
57636;DHT22;43465;50.728;4.160;2023-07-30T12:13:42;22.50;99.90
57636;DHT22;43465;50.728;4.160;2023-07-30T12:16:10;22.60;99.90
57636;DHT22;43465;50.728;4.160;2023-07-30T12:18:37;22.60;99.90
57636;DHT22;43465;50.728;4.160;2023-07-30T12:21:03;22.70;99.90
57636;DHT22;43465;50.728;4.160;2023-07-30T12:23:32;22.80;99.90
57636;DHT22;43465;50.728;4.160;2023-07-30T12:25:57;22.80;99.90
57636;DHT22;43465;50.728;4.160;2023-07-30T12:28:23;22.90;99.90
57636;DHT22;43465;50.728;4.160;2023-07-30T12:30:49;22.90;99.90
57636;DHT22;43465;50.728;4.160;2023-07-30T12:33:14;22.90;99.90
57636;DHT22;43465;50.728;4.160;2023-07-30T12:35:40;22.90;99.90
57636;DHT22;43465;50.728;4.160;2023-07-30T12:38:06;22.80;99.90
57636;DHT22;43465;50.728;4.160;2023-07-30T12:40:31;22.80;99.90
57636;DHT22;43465;50.728;4.160;2023-07-30T12:43:01;22.80;99.90
57636;DHT22;43465;50.728;4.160;2023-07-30T12:45:27;22.80;99.90
57636;DHT22;43465;50.728;4.160;2023-07-30T12:47:53;22.90;99.90
57636;DHT22;43465;50.728;4.160;2023-07-30T12:50:18;23.00;99.80
57636;DHT22;43465;50.728;4.160;2023-07-30T12:52:44;23.10;99.90
57636;DHT22;43465;50.728;4.160;2023-07-30T12:55:10;23.20;99.40
57636;DHT22;43465;50.728;4.160;2023-07-30T12:57:35;23.30;99.80
57636;DHT22;43465;50.728;4.160;2023-07-30T13:00:01;23.30;99.90
57636;DHT22;43465;50.728;4.160;2023-07-30T13:02:27;23.30;99.30
57636;DHT22;43465;50.728;4.160;2023-07-30T13:04:53;23.30;99.30
57636;DHT22;43465;50.728;4.160;2023-07-30T13:07:18;23.20;98.80
57636;DHT22;43465;50.728;4.160;2023-07-30T13:09:46;23.10;99.90
57636;DHT22;43465;50.728;4.160;2023-07-30T13:12:12;23.10;99.90
57636;DHT22;43465;50.728;4.160;2023-07-30T13:14:38;23.20;99.90
57636;DHT22;43465;50.728;4.160;2023-07-30T13:17:04;23.30;99.90
57636;DHT22;43465;50.728;4.160;2023-07-30T13:19:29;23.50;99.90
57636;DHT22;43465;50.728;4.160;2023-07-30T13:21:57;23.80;97.80
57636;DHT22;43465;50.728;4.160;2023-07-30T13:24:23;23.90;96.70
57636;DHT22;43465;50.728;4.160;2023-07-30T13:26:48;23.90;95.90
57636;DHT22;43465;50.728;4.160;2023-07-30T13:29:14;24.00;97.20
57636;DHT22;43465;50.728;4.160;2023-07-30T13:31:39;24.00;96.60
57636;DHT22;43465;50.728;4.160;2023-07-30T13:34:05;24.00;95.80
57636;DHT22;43465;50.728;4.160;2023-07-30T13:36:31;24.10;97.00
57636;DHT22;43465;50.728;4.160;2023-07-30T13:38:57;24.20;97.90
57636;DHT22;43465;50.728;4.160;2023-07-30T13:41:23;24.20;96.90
57636;DHT22;43465;50.728;4.160;2023-07-30T13:43:49;24.10;96.50
57636;DHT22;43465;50.728;4.160;2023-07-30T13:46:14;24.00;96.10
57636;DHT22;43465;50.728;4.160;2023-07-30T13:48:40;23.90;97.00
57636;DHT22;43465;50.728;4.160;2023-07-30T13:51:05;23.90;96.90
57636;DHT22;43465;50.728;4.160;2023-07-30T13:53:31;23.80;97.70
57636;DHT22;43465;50.728;4.160;2023-07-30T13:56:00;23.90;97.00
57636;DHT22;43465;50.728;4.160;2023-07-30T13:58:26;23.90;97.20
57636;DHT22;43465;50.728;4.160;2023-07-30T14:00:53;24.00;98.40
57636;DHT22;43465;50.728;4.160;2023-07-30T14:03:20;24.00;97.00
57636;DHT22;43465;50.728;4.160;2023-07-30T14:05:45;24.00;97.50
57636;DHT22;43465;50.728;4.160;2023-07-30T14:08:11;24.00;97.30
57636;DHT22;43465;50.728;4.160;2023-07-30T14:10:36;23.90;98.00
57636;DHT22;43465;50.728;4.160;2023-07-30T14:13:02;24.00;98.40
57636;DHT22;43465;50.728;4.160;2023-07-30T14:15:27;24.00;99.20
57636;DHT22;43465;50.728;4.160;2023-07-30T14:17:53;24.20;98.60
57636;DHT22;43465;50.728;4.160;2023-07-30T14:20:20;24.20;98.80
57636;DHT22;43465;50.728;4.160;2023-07-30T14:22:46;24.30;99.60
57636;DHT22;43465;50.728;4.160;2023-07-30T14:25:11;24.40;98.80
57636;DHT22;43465;50.728;4.160;2023-07-30T14:27:37;24.30;98.30
57636;DHT22;43465;50.728;4.160;2023-07-30T14:30:03;24.20;98.40
57636;DHT22;43465;50.728;4.160;2023-07-30T14:32:28;24.10;98.40
57636;DHT22;43465;50.728;4.160;2023-07-30T14:34:54;24.00;98.80
57636;DHT22;43465;50.728;4.160;2023-07-30T14:37:20;23.80;99.30
57636;DHT22;43465;50.728;4.160;2023-07-30T14:39:45;23.70;99.40
57636;DHT22;43465;50.728;4.160;2023-07-30T14:42:11;23.70;99.80
57636;DHT22;43465;50.728;4.160;2023-07-30T14:44:36;23.50;99.90
57636;DHT22;43465;50.728;4.160;2023-07-30T14:47:02;23.40;99.90
57636;DHT22;43465;50.728;4.160;2023-07-30T14:49:30;23.40;99.90
57636;DHT22;43465;50.728;4.160;2023-07-30T14:51:55;23.30;99.90
57636;DHT22;43465;50.728;4.160;2023-07-30T14:54:22;23.30;99.90
57636;DHT22;43465;50.728;4.160;2023-07-30T14:56:47;23.30;99.90
57636;DHT22;43465;50.728;4.160;2023-07-30T14:59:13;23.40;99.90
57636;DHT22;43465;50.728;4.160;2023-07-30T15:01:38;23.40;99.90
57636;DHT22;43465;50.728;4.160;2023-07-30T15:04:04;23.40;99.90
57636;DHT22;43465;50.728;4.160;2023-07-30T15:06:30;23.40;99.90
57636;DHT22;43465;50.728;4.160;2023-07-30T15:08:56;23.40;99.90
57636;DHT22;43465;50.728;4.160;2023-07-30T15:11:22;23.30;99.90
57636;DHT22;43465;50.728;4.160;2023-07-30T15:13:47;23.30;99.90
57636;DHT22;43465;50.728;4.160;2023-07-30T15:16:13;23.20;99.90
57636;DHT22;43465;50.728;4.160;2023-07-30T15:18:40;23.10;99.90
57636;DHT22;43465;50.728;4.160;2023-07-30T15:21:12;23.00;99.90
57636;DHT22;43465;50.728;4.160;2023-07-30T15:23:38;22.90;99.90
57636;DHT22;43465;50.728;4.160;2023-07-30T15:26:03;22.80;99.90
57636;DHT22;43465;50.728;4.160;2023-07-30T15:28:29;22.70;99.90